< < Back
Terminal Aerodrome Forecast


Current Version              Previous Versions:   1  2  3  4  5  6  7  8  9  

Terminal Aerodrome Forecast

760
FTUS42 KGSP 291457 AAA
TAFCLT
TAF AMD
KCLT 291457Z 2915/3012 07004KT P6SM BKN250
     FM291800 10005KT P6SM FEW050 SCT150 BKN200
     FM300300 14004KT P6SM BKN120=

Latest METAR

174
SAUS70 KWBC 300100 RRJ
MTRCLT
METAR KCLT 300052Z 17005KT 10SM BKN170 OVC250 25/14 A3016 RMK AO2 SLP204
T02500139


USA.gov is the U.S. government's official web portal to all federal, state and local government web resources and services.